sensor_id;sensor_type;location;lat;lon;timestamp;P1;durP1;ratioP1;P2;durP2;ratioP2
21148;SDS011;10732;51.472;6.466;2022-10-16T00:01:55;8.20;;;4.97;;
21148;SDS011;10732;51.472;6.466;2022-10-16T00:04:20;6.57;;;4.97;;
21148;SDS011;10732;51.472;6.466;2022-10-16T00:06:46;9.75;;;5.15;;
21148;SDS011;10732;51.472;6.466;2022-10-16T00:09:11;10.15;;;4.97;;
21148;SDS011;10732;51.472;6.466;2022-10-16T00:11:38;8.13;;;4.75;;
21148;SDS011;10732;51.472;6.466;2022-10-16T00:14:06;6.53;;;4.32;;
21148;SDS011;10732;51.472;6.466;2022-10-16T00:16:35;6.68;;;4.55;;
21148;SDS011;10732;51.472;6.466;2022-10-16T00:19:01;6.65;;;4.32;;
21148;SDS011;10732;51.472;6.466;2022-10-16T00:21:27;10.35;;;4.32;;
21148;SDS011;10732;51.472;6.466;2022-10-16T00:23:55;7.97;;;4.78;;
21148;SDS011;10732;51.472;6.466;2022-10-16T00:26:26;11.35;;;4.72;;
21148;SDS011;10732;51.472;6.466;2022-10-16T00:28:53;7.78;;;4.15;;
21148;SDS011;10732;51.472;6.466;2022-10-16T00:31:20;6.57;;;4.00;;
21148;SDS011;10732;51.472;6.466;2022-10-16T00:33:48;5.40;;;4.20;;
21148;SDS011;10732;51.472;6.466;2022-10-16T00:36:15;10.77;;;4.20;;
21148;SDS011;10732;51.472;6.466;2022-10-16T00:38:42;5.25;;;3.78;;
21148;SDS011;10732;51.472;6.466;2022-10-16T00:41:10;5.13;;;3.95;;
21148;SDS011;10732;51.472;6.466;2022-10-16T00:43:46;7.43;;;3.83;;
21148;SDS011;10732;51.472;6.466;2022-10-16T00:46:27;4.95;;;3.47;;
21148;SDS011;10732;51.472;6.466;2022-10-16T00:49:00;5.90;;;3.85;;
21148;SDS011;10732;51.472;6.466;2022-10-16T00:51:33;4.93;;;3.63;;
21148;SDS011;10732;51.472;6.466;2022-10-16T00:54:02;4.32;;;3.75;;
21148;SDS011;10732;51.472;6.466;2022-10-16T00:56:28;5.07;;;3.67;;
21148;SDS011;10732;51.472;6.466;2022-10-16T00:58:54;6.43;;;3.88;;
21148;SDS011;10732;51.472;6.466;2022-10-16T01:01:20;9.38;;;4.05;;
21148;SDS011;10732;51.472;6.466;2022-10-16T01:03:45;6.10;;;3.40;;
21148;SDS011;10732;51.472;6.466;2022-10-16T01:08:52;4.78;;;3.75;;
21148;SDS011;10732;51.472;6.466;2022-10-16T01:14:02;6.80;;;3.67;;
21148;SDS011;10732;51.472;6.466;2022-10-16T01:16:49;4.00;;;3.60;;
21148;SDS011;10732;51.472;6.466;2022-10-16T01:19:38;4.43;;;3.90;;
21148;SDS011;10732;51.472;6.466;2022-10-16T01:22:18;4.50;;;3.50;;
21148;SDS011;10732;51.472;6.466;2022-10-16T01:24:49;9.35;;;3.55;;
21148;SDS011;10732;51.472;6.466;2022-10-16T01:27:17;6.55;;;3.70;;
21148;SDS011;10732;51.472;6.466;2022-10-16T01:32:39;6.15;;;3.40;;
21148;SDS011;10732;51.472;6.466;2022-10-16T01:35:14;8.43;;;3.28;;
21148;SDS011;10732;51.472;6.466;2022-10-16T01:40:24;3.35;;;2.92;;
21148;SDS011;10732;51.472;6.466;2022-10-16T01:42:56;4.40;;;2.90;;
21148;SDS011;10732;51.472;6.466;2022-10-16T01:45:35;5.70;;;2.70;;
21148;SDS011;10732;51.472;6.466;2022-10-16T01:48:02;5.03;;;2.78;;
21148;SDS011;10732;51.472;6.466;2022-10-16T01:50:33;5.65;;;3.15;;
21148;SDS011;10732;51.472;6.466;2022-10-16T01:53:05;5.05;;;3.00;;
21148;SDS011;10732;51.472;6.466;2022-10-16T01:55:35;4.88;;;2.90;;
21148;SDS011;10732;51.472;6.466;2022-10-16T01:58:04;3.15;;;2.70;;
21148;SDS011;10732;51.472;6.466;2022-10-16T02:00:32;4.03;;;2.67;;
21148;SDS011;10732;51.472;6.466;2022-10-16T02:03:01;4.03;;;2.70;;
21148;SDS011;10732;51.472;6.466;2022-10-16T02:05:30;5.45;;;2.80;;
21148;SDS011;10732;51.472;6.466;2022-10-16T02:07:59;5.95;;;2.67;;
21148;SDS011;10732;51.472;6.466;2022-10-16T02:10:24;5.15;;;2.58;;
21148;SDS011;10732;51.472;6.466;2022-10-16T02:12:58;3.17;;;2.88;;
21148;SDS011;10732;51.472;6.466;2022-10-16T02:15:28;4.32;;;2.90;;
21148;SDS011;10732;51.472;6.466;2022-10-16T02:17:54;3.35;;;2.72;;
21148;SDS011;10732;51.472;6.466;2022-10-16T02:20:20;3.90;;;3.00;;
21148;SDS011;10732;51.472;6.466;2022-10-16T02:22:55;3.78;;;2.83;;
21148;SDS011;10732;51.472;6.466;2022-10-16T02:25:34;3.25;;;2.50;;
21148;SDS011;10732;51.472;6.466;2022-10-16T02:30:45;4.82;;;2.47;;
21148;SDS011;10732;51.472;6.466;2022-10-16T02:33:15;3.17;;;2.40;;
21148;SDS011;10732;51.472;6.466;2022-10-16T02:35:43;4.00;;;2.30;;
21148;SDS011;10732;51.472;6.466;2022-10-16T02:38:10;4.72;;;2.40;;
21148;SDS011;10732;51.472;6.466;2022-10-16T02:40:37;2.80;;;2.50;;
21148;SDS011;10732;51.472;6.466;2022-10-16T02:43:04;3.03;;;2.20;;
21148;SDS011;10732;51.472;6.466;2022-10-16T02:45:29;4.28;;;2.28;;
21148;SDS011;10732;51.472;6.466;2022-10-16T02:47:55;3.33;;;2.30;;
21148;SDS011;10732;51.472;6.466;2022-10-16T02:50:21;5.07;;;2.65;;
21148;SDS011;10732;51.472;6.466;2022-10-16T02:52:47;3.72;;;2.45;;
21148;SDS011;10732;51.472;6.466;2022-10-16T02:55:13;4.65;;;2.47;;
21148;SDS011;10732;51.472;6.466;2022-10-16T02:57:39;6.60;;;2.63;;
21148;SDS011;10732;51.472;6.466;2022-10-16T03:00:05;2.78;;;2.20;;
21148;SDS011;10732;51.472;6.466;2022-10-16T03:02:34;5.55;;;2.38;;
21148;SDS011;10732;51.472;6.466;2022-10-16T03:05:00;3.55;;;2.13;;
21148;SDS011;10732;51.472;6.466;2022-10-16T03:07:25;4.63;;;2.42;;
21148;SDS011;10732;51.472;6.466;2022-10-16T03:09:51;4.25;;;2.40;;
21148;SDS011;10732;51.472;6.466;2022-10-16T03:12:17;2.38;;;2.15;;
21148;SDS011;10732;51.472;6.466;2022-10-16T03:14:42;3.47;;;2.35;;
21148;SDS011;10732;51.472;6.466;2022-10-16T03:17:08;3.35;;;2.30;;
21148;SDS011;10732;51.472;6.466;2022-10-16T03:19:33;4.55;;;2.55;;
21148;SDS011;10732;51.472;6.466;2022-10-16T03:22:00;4.65;;;2.20;;
21148;SDS011;10732;51.472;6.466;2022-10-16T03:24:26;6.63;;;2.28;;
21148;SDS011;10732;51.472;6.466;2022-10-16T03:26:52;3.88;;;1.90;;
21148;SDS011;10732;51.472;6.466;2022-10-16T03:29:17;3.58;;;1.75;;
21148;SDS011;10732;51.472;6.466;2022-10-16T03:31:43;2.08;;;1.70;;
21148;SDS011;10732;51.472;6.466;2022-10-16T03:34:08;2.95;;;2.03;;
21148;SDS011;10732;51.472;6.466;2022-10-16T03:36:34;2.53;;;1.90;;
21148;SDS011;10732;51.472;6.466;2022-10-16T03:39:00;3.97;;;2.08;;
21148;SDS011;10732;51.472;6.466;2022-10-16T03:41:25;3.13;;;2.00;;
21148;SDS011;10732;51.472;6.466;2022-10-16T03:43:51;3.28;;;1.90;;
21148;SDS011;10732;51.472;6.466;2022-10-16T03:46:16;3.45;;;2.00;;
21148;SDS011;10732;51.472;6.466;2022-10-16T03:48:42;2.92;;;2.20;;
21148;SDS011;10732;51.472;6.466;2022-10-16T03:51:07;3.13;;;1.58;;
21148;SDS011;10732;51.472;6.466;2022-10-16T03:53:33;3.95;;;2.05;;
21148;SDS011;10732;51.472;6.466;2022-10-16T03:55:58;2.03;;;1.77;;
21148;SDS011;10732;51.472;6.466;2022-10-16T03:58:24;2.92;;;1.80;;
21148;SDS011;10732;51.472;6.466;2022-10-16T04:00:50;2.85;;;1.60;;
21148;SDS011;10732;51.472;6.466;2022-10-16T04:03:15;2.92;;;1.90;;
21148;SDS011;10732;51.472;6.466;2022-10-16T04:05:42;3.35;;;1.90;;
21148;SDS011;10732;51.472;6.466;2022-10-16T04:08:07;4.40;;;1.73;;
21148;SDS011;10732;51.472;6.466;2022-10-16T04:10:33;2.15;;;1.90;;
21148;SDS011;10732;51.472;6.466;2022-10-16T04:12:59;4.05;;;2.08;;
21148;SDS011;10732;51.472;6.466;2022-10-16T04:15:25;3.70;;;1.80;;
21148;SDS011;10732;51.472;6.466;2022-10-16T04:17:51;2.38;;;1.90;;
21148;SDS011;10732;51.472;6.466;2022-10-16T04:20:17;2.58;;;1.90;;
21148;SDS011;10732;51.472;6.466;2022-10-16T04:22:43;4.13;;;1.90;;
21148;SDS011;10732;51.472;6.466;2022-10-16T04:25:09;1.95;;;1.75;;
21148;SDS011;10732;51.472;6.466;2022-10-16T04:27:36;2.10;;;1.70;;
21148;SDS011;10732;51.472;6.466;2022-10-16T04:30:01;3.05;;;1.95;;
21148;SDS011;10732;51.472;6.466;2022-10-16T04:32:27;3.25;;;1.80;;
21148;SDS011;10732;51.472;6.466;2022-10-16T04:34:53;3.83;;;1.90;;
21148;SDS011;10732;51.472;6.466;2022-10-16T04:37:19;2.00;;;1.75;;
21148;SDS011;10732;51.472;6.466;2022-10-16T04:39:49;3.15;;;1.80;;
21148;SDS011;10732;51.472;6.466;2022-10-16T04:42:14;3.65;;;1.83;;
21148;SDS011;10732;51.472;6.466;2022-10-16T04:44:40;6.00;;;1.70;;
21148;SDS011;10732;51.472;6.466;2022-10-16T04:47:05;2.67;;;1.90;;
21148;SDS011;10732;51.472;6.466;2022-10-16T04:49:31;2.10;;;1.90;;
21148;SDS011;10732;51.472;6.466;2022-10-16T04:51:56;3.28;;;1.70;;
21148;SDS011;10732;51.472;6.466;2022-10-16T04:54:22;5.68;;;1.88;;
21148;SDS011;10732;51.472;6.466;2022-10-16T04:56:47;3.00;;;1.77;;
21148;SDS011;10732;51.472;6.466;2022-10-16T04:59:15;2.33;;;1.70;;
21148;SDS011;10732;51.472;6.466;2022-10-16T05:01:41;2.88;;;1.60;;
21148;SDS011;10732;51.472;6.466;2022-10-16T05:04:07;6.25;;;1.88;;
21148;SDS011;10732;51.472;6.466;2022-10-16T05:06:32;3.22;;;1.60;;
21148;SDS011;10732;51.472;6.466;2022-10-16T05:08:58;2.85;;;1.80;;
21148;SDS011;10732;51.472;6.466;2022-10-16T05:11:23;3.67;;;1.73;;
21148;SDS011;10732;51.472;6.466;2022-10-16T05:13:49;2.13;;;1.77;;
21148;SDS011;10732;51.472;6.466;2022-10-16T05:16:15;2.55;;;1.85;;
21148;SDS011;10732;51.472;6.466;2022-10-16T05:18:40;2.58;;;1.80;;
21148;SDS011;10732;51.472;6.466;2022-10-16T05:21:06;4.68;;;1.80;;
21148;SDS011;10732;51.472;6.466;2022-10-16T05:23:31;3.17;;;1.90;;
21148;SDS011;10732;51.472;6.466;2022-10-16T05:25:57;5.22;;;1.83;;
21148;SDS011;10732;51.472;6.466;2022-10-16T05:28:25;2.58;;;2.25;;
21148;SDS011;10732;51.472;6.466;2022-10-16T05:30:51;2.80;;;1.95;;
21148;SDS011;10732;51.472;6.466;2022-10-16T05:33:19;5.72;;;1.70;;
21148;SDS011;10732;51.472;6.466;2022-10-16T05:35:48;2.75;;;1.90;;
21148;SDS011;10732;51.472;6.466;2022-10-16T05:38:15;2.88;;;1.90;;
21148;SDS011;10732;51.472;6.466;2022-10-16T05:40:41;2.67;;;1.65;;
21148;SDS011;10732;51.472;6.466;2022-10-16T05:43:06;2.97;;;1.80;;
21148;SDS011;10732;51.472;6.466;2022-10-16T05:45:32;4.07;;;1.70;;
21148;SDS011;10732;51.472;6.466;2022-10-16T05:47:59;3.00;;;1.90;;
21148;SDS011;10732;51.472;6.466;2022-10-16T05:50:24;2.58;;;1.90;;
21148;SDS011;10732;51.472;6.466;2022-10-16T05:52:50;2.75;;;1.90;;
21148;SDS011;10732;51.472;6.466;2022-10-16T05:55:16;5.70;;;1.70;;
21148;SDS011;10732;51.472;6.466;2022-10-16T05:57:41;3.45;;;2.10;;
21148;SDS011;10732;51.472;6.466;2022-10-16T06:00:07;4.78;;;2.13;;
21148;SDS011;10732;51.472;6.466;2022-10-16T06:02:33;3.22;;;2.20;;
21148;SDS011;10732;51.472;6.466;2022-10-16T06:04:58;4.38;;;2.33;;
21148;SDS011;10732;51.472;6.466;2022-10-16T06:07:24;4.88;;;2.42;;
21148;SDS011;10732;51.472;6.466;2022-10-16T06:09:50;3.22;;;2.40;;
21148;SDS011;10732;51.472;6.466;2022-10-16T06:12:16;4.55;;;2.28;;
21148;SDS011;10732;51.472;6.466;2022-10-16T06:14:42;2.53;;;2.28;;
21148;SDS011;10732;51.472;6.466;2022-10-16T06:17:07;6.18;;;2.30;;
21148;SDS011;10732;51.472;6.466;2022-10-16T06:19:33;5.50;;;2.33;;
21148;SDS011;10732;51.472;6.466;2022-10-16T06:21:58;3.50;;;2.30;;
21148;SDS011;10732;51.472;6.466;2022-10-16T06:24:24;3.30;;;2.30;;
21148;SDS011;10732;51.472;6.466;2022-10-16T06:26:50;4.78;;;2.40;;
21148;SDS011;10732;51.472;6.466;2022-10-16T06:29:15;3.10;;;2.28;;
21148;SDS011;10732;51.472;6.466;2022-10-16T06:31:41;4.15;;;2.20;;
21148;SDS011;10732;51.472;6.466;2022-10-16T06:34:08;2.42;;;1.92;;
21148;SDS011;10732;51.472;6.466;2022-10-16T06:36:35;2.78;;;2.08;;
21148;SDS011;10732;51.472;6.466;2022-10-16T06:39:02;4.13;;;1.90;;
21148;SDS011;10732;51.472;6.466;2022-10-16T06:41:28;3.30;;;2.30;;
21148;SDS011;10732;51.472;6.466;2022-10-16T06:43:53;4.07;;;2.40;;
21148;SDS011;10732;51.472;6.466;2022-10-16T06:46:21;2.92;;;2.28;;
21148;SDS011;10732;51.472;6.466;2022-10-16T06:48:48;2.78;;;2.35;;
21148;SDS011;10732;51.472;6.466;2022-10-16T06:51:15;4.28;;;2.40;;
21148;SDS011;10732;51.472;6.466;2022-10-16T06:53:46;3.55;;;2.47;;
21148;SDS011;10732;51.472;6.466;2022-10-16T06:56:18;5.55;;;2.72;;
21148;SDS011;10732;51.472;6.466;2022-10-16T06:58:48;3.50;;;2.38;;
21148;SDS011;10732;51.472;6.466;2022-10-16T07:01:15;3.20;;;2.42;;
21148;SDS011;10732;51.472;6.466;2022-10-16T07:03:42;5.30;;;2.83;;
21148;SDS011;10732;51.472;6.466;2022-10-16T07:06:11;5.13;;;3.00;;
21148;SDS011;10732;51.472;6.466;2022-10-16T07:08:39;5.70;;;2.90;;
21148;SDS011;10732;51.472;6.466;2022-10-16T07:11:07;4.85;;;2.88;;
21148;SDS011;10732;51.472;6.466;2022-10-16T07:13:44;6.30;;;2.97;;
21148;SDS011;10732;51.472;6.466;2022-10-16T07:18:37;3.97;;;3.03;;
21148;SDS011;10732;51.472;6.466;2022-10-16T07:21:05;6.35;;;3.47;;
21148;SDS011;10732;51.472;6.466;2022-10-16T07:23:32;8.63;;;3.20;;
21148;SDS011;10732;51.472;6.466;2022-10-16T07:25:57;4.68;;;2.92;;
21148;SDS011;10732;51.472;6.466;2022-10-16T07:28:23;4.13;;;3.40;;
21148;SDS011;10732;51.472;6.466;2022-10-16T07:30:48;7.47;;;3.10;;
21148;SDS011;10732;51.472;6.466;2022-10-16T07:33:14;4.25;;;3.00;;
21148;SDS011;10732;51.472;6.466;2022-10-16T07:35:52;4.63;;;2.90;;
21148;SDS011;10732;51.472;6.466;2022-10-16T07:38:19;8.35;;;3.00;;
21148;SDS011;10732;51.472;6.466;2022-10-16T07:40:45;4.35;;;2.80;;
21148;SDS011;10732;51.472;6.466;2022-10-16T07:43:11;4.75;;;2.75;;
21148;SDS011;10732;51.472;6.466;2022-10-16T07:45:37;3.75;;;2.60;;
21148;SDS011;10732;51.472;6.466;2022-10-16T07:48:11;4.32;;;2.72;;
21148;SDS011;10732;51.472;6.466;2022-10-16T07:50:36;5.13;;;2.72;;
21148;SDS011;10732;51.472;6.466;2022-10-16T07:53:02;4.43;;;1.95;;
21148;SDS011;10732;51.472;6.466;2022-10-16T07:55:28;3.53;;;2.10;;
21148;SDS011;10732;51.472;6.466;2022-10-16T07:57:54;2.83;;;1.38;;
21148;SDS011;10732;51.472;6.466;2022-10-16T08:00:20;1.80;;;1.35;;
21148;SDS011;10732;51.472;6.466;2022-10-16T08:02:45;3.30;;;1.20;;
21148;SDS011;10732;51.472;6.466;2022-10-16T08:05:11;2.58;;;1.20;;
21148;SDS011;10732;51.472;6.466;2022-10-16T08:07:36;4.75;;;1.40;;
21148;SDS011;10732;51.472;6.466;2022-10-16T08:10:02;2.83;;;1.13;;
21148;SDS011;10732;51.472;6.466;2022-10-16T08:12:28;2.13;;;1.13;;
21148;SDS011;10732;51.472;6.466;2022-10-16T08:14:53;2.55;;;1.35;;
21148;SDS011;10732;51.472;6.466;2022-10-16T08:17:18;3.60;;;1.45;;
21148;SDS011;10732;51.472;6.466;2022-10-16T08:19:47;2.97;;;1.25;;
21148;SDS011;10732;51.472;6.466;2022-10-16T08:22:13;4.22;;;1.33;;
21148;SDS011;10732;51.472;6.466;2022-10-16T08:24:39;5.60;;;1.23;;
21148;SDS011;10732;51.472;6.466;2022-10-16T08:27:05;10.27;;;1.48;;
21148;SDS011;10732;51.472;6.466;2022-10-16T08:29:31;3.80;;;1.60;;
21148;SDS011;10732;51.472;6.466;2022-10-16T08:31:57;3.60;;;1.20;;
21148;SDS011;10732;51.472;6.466;2022-10-16T08:34:23;1.40;;;1.20;;
21148;SDS011;10732;51.472;6.466;2022-10-16T08:36:48;4.72;;;1.17;;
21148;SDS011;10732;51.472;6.466;2022-10-16T08:39:15;8.23;;;1.42;;
21148;SDS011;10732;51.472;6.466;2022-10-16T08:47:06;3.75;;;1.30;;
21148;SDS011;10732;51.472;6.466;2022-10-16T08:49:55;2.10;;;1.00;;
21148;SDS011;10732;51.472;6.466;2022-10-16T08:52:25;5.15;;;1.52;;
21148;SDS011;10732;51.472;6.466;2022-10-16T08:54:56;3.10;;;1.20;;
21148;SDS011;10732;51.472;6.466;2022-10-16T08:57:22;3.28;;;1.00;;
21148;SDS011;10732;51.472;6.466;2022-10-16T08:59:50;3.63;;;1.23;;
21148;SDS011;10732;51.472;6.466;2022-10-16T09:02:36;2.08;;;1.25;;
21148;SDS011;10732;51.472;6.466;2022-10-16T09:08:08;5.90;;;1.35;;
21148;SDS011;10732;51.472;6.466;2022-10-16T09:11:03;2.60;;;1.05;;
21148;SDS011;10732;51.472;6.466;2022-10-16T09:14:12;4.32;;;1.00;;
21148;SDS011;10732;51.472;6.466;2022-10-16T09:17:14;5.00;;;1.25;;
21148;SDS011;10732;51.472;6.466;2022-10-16T09:22:34;4.18;;;1.35;;
21148;SDS011;10732;51.472;6.466;2022-10-16T09:25:00;3.17;;;1.10;;
21148;SDS011;10732;51.472;6.466;2022-10-16T09:27:37;3.03;;;1.10;;
21148;SDS011;10732;51.472;6.466;2022-10-16T09:30:25;2.13;;;1.00;;
21148;SDS011;10732;51.472;6.466;2022-10-16T09:32:51;4.05;;;1.20;;
21148;SDS011;10732;51.472;6.466;2022-10-16T09:35:22;2.45;;;1.17;;
21148;SDS011;10732;51.472;6.466;2022-10-16T09:37:52;3.92;;;1.17;;
21148;SDS011;10732;51.472;6.466;2022-10-16T09:40:30;2.15;;;0.90;;
21148;SDS011;10732;51.472;6.466;2022-10-16T09:43:46;2.58;;;1.20;;
21148;SDS011;10732;51.472;6.466;2022-10-16T09:46:04;2.85;;;0.95;;
21148;SDS011;10732;51.472;6.466;2022-10-16T09:48:50;2.78;;;1.20;;
21148;SDS011;10732;51.472;6.466;2022-10-16T09:51:18;3.38;;;1.05;;
21148;SDS011;10732;51.472;6.466;2022-10-16T09:53:48;4.32;;;1.17;;
21148;SDS011;10732;51.472;6.466;2022-10-16T09:56:27;4.50;;;1.15;;
21148;SDS011;10732;51.472;6.466;2022-10-16T09:59:13;2.10;;;1.10;;
21148;SDS011;10732;51.472;6.466;2022-10-16T10:01:45;3.20;;;1.00;;
21148;SDS011;10732;51.472;6.466;2022-10-16T10:04:16;3.45;;;1.20;;
21148;SDS011;10732;51.472;6.466;2022-10-16T10:06:45;2.60;;;1.10;;
21148;SDS011;10732;51.472;6.466;2022-10-16T10:09:22;5.95;;;1.48;;
21148;SDS011;10732;51.472;6.466;2022-10-16T10:11:57;1.73;;;1.00;;
21148;SDS011;10732;51.472;6.466;2022-10-16T10:14:41;3.17;;;1.00;;
21148;SDS011;10732;51.472;6.466;2022-10-16T10:17:15;3.40;;;1.27;;
21148;SDS011;10732;51.472;6.466;2022-10-16T10:19:44;1.90;;;1.00;;
21148;SDS011;10732;51.472;6.466;2022-10-16T10:30:19;3.13;;;1.02;;
21148;SDS011;10732;51.472;6.466;2022-10-16T10:38:42;4.95;;;1.30;;
21148;SDS011;10732;51.472;6.466;2022-10-16T10:47:07;4.50;;;1.27;;
21148;SDS011;10732;51.472;6.466;2022-10-16T10:50:07;4.22;;;1.23;;
21148;SDS011;10732;51.472;6.466;2022-10-16T10:55:38;3.05;;;1.25;;
21148;SDS011;10732;51.472;6.466;2022-10-16T11:05:53;2.42;;;1.13;;
21148;SDS011;10732;51.472;6.466;2022-10-16T11:08:35;2.67;;;1.00;;
21148;SDS011;10732;51.472;6.466;2022-10-16T11:11:11;3.83;;;1.35;;
21148;SDS011;10732;51.472;6.466;2022-10-16T11:13:43;3.58;;;0.98;;
21148;SDS011;10732;51.472;6.466;2022-10-16T11:16:26;3.88;;;1.33;;
21148;SDS011;10732;51.472;6.466;2022-10-16T11:19:28;4.68;;;1.33;;
21148;SDS011;10732;51.472;6.466;2022-10-16T11:21:54;4.65;;;1.10;;
21148;SDS011;10732;51.472;6.466;2022-10-16T11:24:43;4.18;;;1.10;;
21148;SDS011;10732;51.472;6.466;2022-10-16T11:27:17;2.85;;;1.02;;
21148;SDS011;10732;51.472;6.466;2022-10-16T11:29:58;3.67;;;1.20;;
21148;SDS011;10732;51.472;6.466;2022-10-16T11:32:32;2.03;;;0.93;;
21148;SDS011;10732;51.472;6.466;2022-10-16T11:35:17;4.70;;;1.27;;
21148;SDS011;10732;51.472;6.466;2022-10-16T11:37:53;2.88;;;1.00;;
21148;SDS011;10732;51.472;6.466;2022-10-16T11:40:23;2.60;;;1.15;;
21148;SDS011;10732;51.472;6.466;2022-10-16T11:43:10;3.28;;;1.10;;
21148;SDS011;10732;51.472;6.466;2022-10-16T11:45:58;3.83;;;1.10;;
21148;SDS011;10732;51.472;6.466;2022-10-16T11:48:39;3.08;;;1.10;;
21148;SDS011;10732;51.472;6.466;2022-10-16T11:54:22;3.20;;;0.90;;
21148;SDS011;10732;51.472;6.466;2022-10-16T11:58:01;3.05;;;1.25;;
21148;SDS011;10732;51.472;6.466;2022-10-16T12:00:21;2.17;;;0.90;;
21148;SDS011;10732;51.472;6.466;2022-10-16T12:05:55;4.10;;;1.15;;
21148;SDS011;10732;51.472;6.466;2022-10-16T12:08:29;3.15;;;1.00;;
21148;SDS011;10732;51.472;6.466;2022-10-16T12:11:06;4.70;;;1.10;;
21148;SDS011;10732;51.472;6.466;2022-10-16T12:13:49;1.67;;;1.05;;
21148;SDS011;10732;51.472;6.466;2022-10-16T12:18:41;4.05;;;1.30;;
21148;SDS011;10732;51.472;6.466;2022-10-16T12:21:11;2.08;;;1.00;;
21148;SDS011;10732;51.472;6.466;2022-10-16T12:23:53;2.95;;;1.00;;
21148;SDS011;10732;51.472;6.466;2022-10-16T12:26:54;4.40;;;1.25;;
21148;SDS011;10732;51.472;6.466;2022-10-16T12:31:48;3.72;;;0.93;;
21148;SDS011;10732;51.472;6.466;2022-10-16T12:34:28;4.93;;;1.15;;
21148;SDS011;10732;51.472;6.466;2022-10-16T12:37:07;2.40;;;1.00;;
21148;SDS011;10732;51.472;6.466;2022-10-16T12:39:38;3.50;;;1.10;;
21148;SDS011;10732;51.472;6.466;2022-10-16T12:42:05;3.58;;;1.10;;
21148;SDS011;10732;51.472;6.466;2022-10-16T12:44:45;2.45;;;1.10;;
21148;SDS011;10732;51.472;6.466;2022-10-16T12:49:52;2.45;;;0.98;;
21148;SDS011;10732;51.472;6.466;2022-10-16T12:55:00;1.70;;;1.00;;
21148;SDS011;10732;51.472;6.466;2022-10-16T13:00:10;2.13;;;1.20;;
21148;SDS011;10732;51.472;6.466;2022-10-16T13:03:00;2.53;;;1.10;;
21148;SDS011;10732;51.472;6.466;2022-10-16T13:08:33;3.15;;;1.05;;
21148;SDS011;10732;51.472;6.466;2022-10-16T13:22:56;3.55;;;1.02;;
21148;SDS011;10732;51.472;6.466;2022-10-16T13:28:19;2.65;;;1.30;;
21148;SDS011;10732;51.472;6.466;2022-10-16T13:30:52;3.65;;;1.40;;
21148;SDS011;10732;51.472;6.466;2022-10-16T13:33:53;3.33;;;1.00;;
21148;SDS011;10732;51.472;6.466;2022-10-16T13:36:48;4.65;;;1.20;;
21148;SDS011;10732;51.472;6.466;2022-10-16T13:41:39;3.45;;;1.20;;
21148;SDS011;10732;51.472;6.466;2022-10-16T13:44:09;2.65;;;1.20;;
21148;SDS011;10732;51.472;6.466;2022-10-16T13:46:40;4.03;;;1.17;;
21148;SDS011;10732;51.472;6.466;2022-10-16T13:51:38;1.73;;;0.90;;
21148;SDS011;10732;51.472;6.466;2022-10-16T13:54:03;5.28;;;1.10;;
21148;SDS011;10732;51.472;6.466;2022-10-16T13:56:30;2.60;;;1.00;;
21148;SDS011;10732;51.472;6.466;2022-10-16T13:58:58;2.05;;;0.90;;
21148;SDS011;10732;51.472;6.466;2022-10-16T14:01:25;3.63;;;1.20;;
21148;SDS011;10732;51.472;6.466;2022-10-16T14:03:59;2.97;;;1.10;;
21148;SDS011;10732;51.472;6.466;2022-10-16T14:06:30;4.65;;;1.10;;
21148;SDS011;10732;51.472;6.466;2022-10-16T14:11:34;2.15;;;1.00;;
21148;SDS011;10732;51.472;6.466;2022-10-16T14:14:10;4.75;;;1.17;;
21148;SDS011;10732;51.472;6.466;2022-10-16T14:16:37;2.83;;;1.17;;
21148;SDS011;10732;51.472;6.466;2022-10-16T14:19:13;2.58;;;1.10;;
21148;SDS011;10732;51.472;6.466;2022-10-16T14:21:46;2.28;;;1.02;;
21148;SDS011;10732;51.472;6.466;2022-10-16T14:24:13;2.80;;;1.02;;
21148;SDS011;10732;51.472;6.466;2022-10-16T14:26:49;3.13;;;0.98;;
21148;SDS011;10732;51.472;6.466;2022-10-16T14:29:18;3.95;;;1.10;;
21148;SDS011;10732;51.472;6.466;2022-10-16T14:34:28;3.42;;;1.15;;
21148;SDS011;10732;51.472;6.466;2022-10-16T14:37:23;5.95;;;1.30;;
21148;SDS011;10732;51.472;6.466;2022-10-16T14:39:50;2.33;;;0.95;;
21148;SDS011;10732;51.472;6.466;2022-10-16T14:42:16;3.33;;;1.02;;
21148;SDS011;10732;51.472;6.466;2022-10-16T14:44:44;4.25;;;1.00;;
21148;SDS011;10732;51.472;6.466;2022-10-16T14:47:12;3.67;;;1.00;;
21148;SDS011;10732;51.472;6.466;2022-10-16T14:49:41;3.05;;;0.98;;
21148;SDS011;10732;51.472;6.466;2022-10-16T14:52:10;1.70;;;1.08;;
21148;SDS011;10732;51.472;6.466;2022-10-16T14:54:37;4.82;;;1.20;;
21148;SDS011;10732;51.472;6.466;2022-10-16T14:57:03;4.65;;;1.20;;
21148;SDS011;10732;51.472;6.466;2022-10-16T14:59:36;6.57;;;1.75;;
21148;SDS011;10732;51.472;6.466;2022-10-16T15:04:56;3.28;;;1.77;;
21148;SDS011;10732;51.472;6.466;2022-10-16T15:07:23;3.42;;;1.50;;
21148;SDS011;10732;51.472;6.466;2022-10-16T15:09:48;2.60;;;1.40;;
21148;SDS011;10732;51.472;6.466;2022-10-16T15:12:14;1.90;;;1.13;;
21148;SDS011;10732;51.472;6.466;2022-10-16T15:14:43;3.28;;;1.30;;
21148;SDS011;10732;51.472;6.466;2022-10-16T15:17:10;5.57;;;1.40;;
21148;SDS011;10732;51.472;6.466;2022-10-16T15:19:36;4.75;;;1.40;;
21148;SDS011;10732;51.472;6.466;2022-10-16T15:22:01;6.95;;;1.88;;
21148;SDS011;10732;51.472;6.466;2022-10-16T15:24:27;3.85;;;1.52;;
21148;SDS011;10732;51.472;6.466;2022-10-16T15:26:52;6.57;;;1.60;;
21148;SDS011;10732;51.472;6.466;2022-10-16T15:29:18;5.57;;;1.67;;
21148;SDS011;10732;51.472;6.466;2022-10-16T15:31:44;4.28;;;1.65;;
21148;SDS011;10732;51.472;6.466;2022-10-16T15:34:12;5.65;;;1.92;;
21148;SDS011;10732;51.472;6.466;2022-10-16T15:36:38;4.47;;;1.85;;
21148;SDS011;10732;51.472;6.466;2022-10-16T15:39:04;4.40;;;1.55;;
21148;SDS011;10732;51.472;6.466;2022-10-16T15:41:44;3.10;;;1.48;;
21148;SDS011;10732;51.472;6.466;2022-10-16T15:44:15;3.35;;;1.67;;
21148;SDS011;10732;51.472;6.466;2022-10-16T15:46:41;3.00;;;1.52;;
21148;SDS011;10732;51.472;6.466;2022-10-16T15:49:07;5.43;;;1.60;;
21148;SDS011;10732;51.472;6.466;2022-10-16T15:51:34;5.60;;;1.83;;
21148;SDS011;10732;51.472;6.466;2022-10-16T15:54:03;3.63;;;1.58;;
21148;SDS011;10732;51.472;6.466;2022-10-16T15:56:29;4.63;;;1.50;;
21148;SDS011;10732;51.472;6.466;2022-10-16T15:58:57;3.70;;;1.50;;
21148;SDS011;10732;51.472;6.466;2022-10-16T16:01:23;4.88;;;2.03;;
21148;SDS011;10732;51.472;6.466;2022-10-16T16:03:51;6.22;;;1.98;;
21148;SDS011;10732;51.472;6.466;2022-10-16T16:06:18;4.35;;;1.65;;
21148;SDS011;10732;51.472;6.466;2022-10-16T16:08:44;4.50;;;1.50;;
21148;SDS011;10732;51.472;6.466;2022-10-16T16:11:10;5.35;;;1.50;;
21148;SDS011;10732;51.472;6.466;2022-10-16T16:13:38;6.18;;;1.73;;
21148;SDS011;10732;51.472;6.466;2022-10-16T16:16:11;4.35;;;1.95;;
21148;SDS011;10732;51.472;6.466;2022-10-16T16:18:38;4.68;;;1.45;;
21148;SDS011;10732;51.472;6.466;2022-10-16T16:21:05;3.35;;;1.60;;
21148;SDS011;10732;51.472;6.466;2022-10-16T16:23:31;5.90;;;1.98;;
21148;SDS011;10732;51.472;6.466;2022-10-16T16:26:42;4.53;;;2.00;;
21148;SDS011;10732;51.472;6.466;2022-10-16T16:28:50;3.75;;;2.00;;
21148;SDS011;10732;51.472;6.466;2022-10-16T16:31:16;6.72;;;2.40;;
21148;SDS011;10732;51.472;6.466;2022-10-16T16:33:42;5.72;;;2.33;;
21148;SDS011;10732;51.472;6.466;2022-10-16T16:36:08;7.43;;;2.38;;
21148;SDS011;10732;51.472;6.466;2022-10-16T16:38:34;5.47;;;2.50;;
21148;SDS011;10732;51.472;6.466;2022-10-16T16:41:00;6.43;;;2.60;;
21148;SDS011;10732;51.472;6.466;2022-10-16T16:43:42;8.57;;;2.67;;
21148;SDS011;10732;51.472;6.466;2022-10-16T16:46:08;5.95;;;2.30;;
21148;SDS011;10732;51.472;6.466;2022-10-16T16:48:34;6.05;;;2.10;;
21148;SDS011;10732;51.472;6.466;2022-10-16T16:51:04;4.50;;;2.58;;
21148;SDS011;10732;51.472;6.466;2022-10-16T16:53:34;9.38;;;2.30;;